sensor_id;sensor_type;location;lat;lon;timestamp;pressure;altitude;pressure_sealevel;temperature;humidity
13867;BME280;7003;46.982;15.248;2022-08-11T00:02:33;97724.91;;;16.50;100.00
13867;BME280;7003;46.982;15.248;2022-08-11T00:05:07;97734.78;;;16.62;100.00
13867;BME280;7003;46.982;15.248;2022-08-11T00:07:43;97734.84;;;16.65;100.00
13867;BME280;7003;46.982;15.248;2022-08-11T00:10:15;97736.59;;;16.42;100.00
13867;BME280;7003;46.982;15.248;2022-08-11T00:12:50;97740.50;;;16.44;100.00
13867;BME280;7003;46.982;15.248;2022-08-11T00:15:18;97741.63;;;16.43;100.00
13867;BME280;7003;46.982;15.248;2022-08-11T00:17:46;97733.38;;;16.52;100.00
13867;BME280;7003;46.982;15.248;2022-08-11T00:20:14;97739.22;;;16.38;100.00
13867;BME280;7003;46.982;15.248;2022-08-11T00:22:44;97736.38;;;16.31;100.00
13867;BME280;7003;46.982;15.248;2022-08-11T00:25:16;97734.63;;;16.23;100.00
13867;BME280;7003;46.982;15.248;2022-08-11T00:27:49;97732.81;;;16.27;100.00
13867;BME280;7003;46.982;15.248;2022-08-11T00:30:16;97735.84;;;16.26;100.00
13867;BME280;7003;46.982;15.248;2022-08-11T00:32:45;97734.63;;;16.39;100.00
13867;BME280;7003;46.982;15.248;2022-08-11T00:35:25;97731.84;;;16.20;100.00
13867;BME280;7003;46.982;15.248;2022-08-11T00:37:55;97739.38;;;16.30;100.00
13867;BME280;7003;46.982;15.248;2022-08-11T00:40:31;97729.09;;;16.16;100.00
13867;BME280;7003;46.982;15.248;2022-08-11T00:43:12;97733.69;;;16.00;100.00
13867;BME280;7003;46.982;15.248;2022-08-11T00:46:01;97728.47;;;15.91;100.00
13867;BME280;7003;46.982;15.248;2022-08-11T00:48:48;97725.63;;;16.00;100.00
13867;BME280;7003;46.982;15.248;2022-08-11T00:51:24;97728.66;;;15.98;100.00
13867;BME280;7003;46.982;15.248;2022-08-11T00:54:05;97731.69;;;15.97;100.00
13867;BME280;7003;46.982;15.248;2022-08-11T00:57:23;97726.91;;;15.90;100.00
13867;BME280;7003;46.982;15.248;2022-08-11T01:00:05;97723.00;;;15.88;100.00
13867;BME280;7003;46.982;15.248;2022-08-11T01:02:45;97724.41;;;15.82;100.00
13867;BME280;7003;46.982;15.248;2022-08-11T01:05:41;97728.13;;;15.77;100.00
13867;BME280;7003;46.982;15.248;2022-08-11T01:11:40;97721.53;;;15.74;100.00
13867;BME280;7003;46.982;15.248;2022-08-11T01:31:06;97719.75;;;15.23;100.00
13867;BME280;7003;46.982;15.248;2022-08-11T01:34:07;97715.44;;;15.06;100.00
13867;BME280;7003;46.982;15.248;2022-08-11T01:36:52;97716.50;;;14.89;100.00
13867;BME280;7003;46.982;15.248;2022-08-11T01:42:55;97716.28;;;14.82;100.00
13867;BME280;7003;46.982;15.248;2022-08-11T01:45:50;97717.06;;;14.83;100.00
13867;BME280;7003;46.982;15.248;2022-08-11T01:48:41;97716.06;;;14.75;100.00
13867;BME280;7003;46.982;15.248;2022-08-11T01:51:19;97710.97;;;14.70;100.00
13867;BME280;7003;46.982;15.248;2022-08-11T01:54:00;97710.84;;;14.67;100.00
13867;BME280;7003;46.982;15.248;2022-08-11T01:56:52;97697.22;;;14.72;100.00
13867;BME280;7003;46.982;15.248;2022-08-11T01:59:27;97699.34;;;14.66;100.00
13867;BME280;7003;46.982;15.248;2022-08-11T02:05:25;97699.47;;;14.70;100.00
13867;BME280;7003;46.982;15.248;2022-08-11T02:07:59;97702.03;;;14.66;100.00
13867;BME280;7003;46.982;15.248;2022-08-11T02:10:38;97708.84;;;14.51;100.00
13867;BME280;7003;46.982;15.248;2022-08-11T02:13:35;97705.41;;;14.63;100.00
13867;BME280;7003;46.982;15.248;2022-08-11T02:16:18;97701.03;;;14.58;100.00
13867;BME280;7003;46.982;15.248;2022-08-11T02:18:54;97701.59;;;14.52;100.00
13867;BME280;7003;46.982;15.248;2022-08-11T02:21:45;97699.16;;;14.47;100.00
13867;BME280;7003;46.982;15.248;2022-08-11T02:24:42;97695.59;;;14.43;100.00
13867;BME280;7003;46.982;15.248;2022-08-11T02:27:19;97693.13;;;14.50;100.00
13867;BME280;7003;46.982;15.248;2022-08-11T02:29:55;97692.91;;;14.43;100.00
13867;BME280;7003;46.982;15.248;2022-08-11T02:32:35;97695.00;;;14.25;100.00
13867;BME280;7003;46.982;15.248;2022-08-11T02:35:26;97694.38;;;14.16;100.00
13867;BME280;7003;46.982;15.248;2022-08-11T02:38:10;97690.00;;;14.23;100.00
13867;BME280;7003;46.982;15.248;2022-08-11T02:40:46;97696.47;;;14.35;100.00
13867;BME280;7003;46.982;15.248;2022-08-11T02:43:32;97692.22;;;14.21;100.00
13867;BME280;7003;46.982;15.248;2022-08-11T02:46:17;97696.81;;;14.21;100.00
13867;BME280;7003;46.982;15.248;2022-08-11T02:48:52;97694.38;;;14.16;100.00
13867;BME280;7003;46.982;15.248;2022-08-11T02:51:44;97689.22;;;14.11;100.00
13867;BME280;7003;46.982;15.248;2022-08-11T02:54:26;97689.53;;;14.09;100.00
13867;BME280;7003;46.982;15.248;2022-08-11T02:57:01;97692.66;;;14.11;100.00
13867;BME280;7003;46.982;15.248;2022-08-11T02:59:42;97698.47;;;14.01;100.00
13867;BME280;7003;46.982;15.248;2022-08-11T03:02:28;97701.59;;;14.03;100.00
13867;BME280;7003;46.982;15.248;2022-08-11T03:05:05;97702.50;;;14.07;100.00
13867;BME280;7003;46.982;15.248;2022-08-11T03:07:40;97704.06;;;14.08;100.00
13867;BME280;7003;46.982;15.248;2022-08-11T03:10:21;97705.16;;;14.07;100.00
13867;BME280;7003;46.982;15.248;2022-08-11T03:12:58;97703.09;;;13.68;100.00
13867;BME280;7003;46.982;15.248;2022-08-11T03:16:04;97700.34;;;13.43;100.00
13867;BME280;7003;46.982;15.248;2022-08-11T03:19:00;97700.59;;;13.51;100.00
13867;BME280;7003;46.982;15.248;2022-08-11T03:21:37;97703.97;;;13.60;100.00
13867;BME280;7003;46.982;15.248;2022-08-11T03:24:15;97698.56;;;13.47;100.00
13867;BME280;7003;46.982;15.248;2022-08-11T03:26:53;97707.28;;;13.44;100.00
13867;BME280;7003;46.982;15.248;2022-08-11T03:29:33;97705.47;;;13.36;100.00
13867;BME280;7003;46.982;15.248;2022-08-11T03:32:09;97705.69;;;13.43;100.00
13867;BME280;7003;46.982;15.248;2022-08-11T03:34:38;97710.91;;;13.40;100.00
13867;BME280;7003;46.982;15.248;2022-08-11T03:37:40;97710.03;;;13.48;100.00
13867;BME280;7003;46.982;15.248;2022-08-11T03:40:29;97712.84;;;13.52;100.00
13867;BME280;7003;46.982;15.248;2022-08-11T03:43:27;97714.25;;;13.37;100.00
13867;BME280;7003;46.982;15.248;2022-08-11T03:46:03;97708.53;;;13.26;100.00
13867;BME280;7003;46.982;15.248;2022-08-11T03:48:45;97704.13;;;13.42;100.00
13867;BME280;7003;46.982;15.248;2022-08-11T03:51:21;97718.00;;;13.24;100.00
13867;BME280;7003;46.982;15.248;2022-08-11T03:54:09;97716.00;;;13.12;100.00
13867;BME280;7003;46.982;15.248;2022-08-11T04:00:21;97722.75;;;13.18;100.00
13867;BME280;7003;46.982;15.248;2022-08-11T04:09:46;97711.44;;;13.33;100.00
13867;BME280;7003;46.982;15.248;2022-08-11T04:15:57;97723.66;;;13.22;100.00
13867;BME280;7003;46.982;15.248;2022-08-11T04:25:44;97729.38;;;12.91;100.00
13867;BME280;7003;46.982;15.248;2022-08-11T04:28:43;97732.16;;;12.95;100.00
13867;BME280;7003;46.982;15.248;2022-08-11T04:31:29;97736.03;;;13.06;100.00
13867;BME280;7003;46.982;15.248;2022-08-11T04:40:37;97739.38;;;12.94;100.00
13867;BME280;7003;46.982;15.248;2022-08-11T04:50:18;97748.59;;;13.26;100.00
13867;BME280;7003;46.982;15.248;2022-08-11T04:53:31;97748.06;;;13.33;100.00
13867;BME280;7003;46.982;15.248;2022-08-11T04:56:23;97743.13;;;13.43;100.00
13867;BME280;7003;46.982;15.248;2022-08-11T04:59:50;97749.09;;;13.40;100.00
13867;BME280;7003;46.982;15.248;2022-08-11T05:09:27;97746.13;;;13.87;100.00
13867;BME280;7003;46.982;15.248;2022-08-11T05:12:24;97753.03;;;13.76;100.00
13867;BME280;7003;46.982;15.248;2022-08-11T05:15:03;97745.69;;;13.85;100.00
13867;BME280;7003;46.982;15.248;2022-08-11T05:17:59;97746.50;;;14.10;100.00
13867;BME280;7003;46.982;15.248;2022-08-11T05:20:52;97746.84;;;14.33;100.00
13867;BME280;7003;46.982;15.248;2022-08-11T05:23:42;97742.22;;;14.54;100.00
13867;BME280;7003;46.982;15.248;2022-08-11T05:26:38;97730.47;;;15.11;100.00
13867;BME280;7003;46.982;15.248;2022-08-11T05:29:50;97730.88;;;15.96;100.00
13867;BME280;7003;46.982;15.248;2022-08-11T05:32:59;97729.56;;;16.69;100.00
13867;BME280;7003;46.982;15.248;2022-08-11T05:36:01;97723.97;;;17.31;100.00
13867;BME280;7003;46.982;15.248;2022-08-11T05:38:36;97723.56;;;17.91;100.00
13867;BME280;7003;46.982;15.248;2022-08-11T05:41:23;97726.19;;;18.33;100.00
13867;BME280;7003;46.982;15.248;2022-08-11T05:44:10;97732.88;;;18.65;100.00
13867;BME280;7003;46.982;15.248;2022-08-11T05:47:04;97727.94;;;19.01;100.00
13867;BME280;7003;46.982;15.248;2022-08-11T05:49:50;97726.75;;;19.28;100.00
13867;BME280;7003;46.982;15.248;2022-08-11T05:52:37;97728.84;;;19.42;100.00
13867;BME280;7003;46.982;15.248;2022-08-11T05:55:23;97730.66;;;19.64;100.00
13867;BME280;7003;46.982;15.248;2022-08-11T05:58:12;97727.81;;;19.87;100.00
13867;BME280;7003;46.982;15.248;2022-08-11T06:00:44;97728.63;;;19.94;100.00
13867;BME280;7003;46.982;15.248;2022-08-11T06:03:25;97729.19;;;20.11;100.00
13867;BME280;7003;46.982;15.248;2022-08-11T06:05:55;97735.03;;;20.20;100.00
13867;BME280;7003;46.982;15.248;2022-08-11T06:08:29;97734.03;;;20.35;100.00
13867;BME280;7003;46.982;15.248;2022-08-11T06:11:01;97733.00;;;20.50;100.00
13867;BME280;7003;46.982;15.248;2022-08-11T06:13:30;97741.19;;;20.64;100.00
13867;BME280;7003;46.982;15.248;2022-08-11T06:15:59;97728.56;;;20.83;100.00
13867;BME280;7003;46.982;15.248;2022-08-11T06:18:31;97725.47;;;20.84;100.00
13867;BME280;7003;46.982;15.248;2022-08-11T06:21:08;97729.38;;;20.90;100.00
13867;BME280;7003;46.982;15.248;2022-08-11T06:23:41;97725.50;;;20.91;100.00
13867;BME280;7003;46.982;15.248;2022-08-11T06:26:13;97726.69;;;20.90;100.00
13867;BME280;7003;46.982;15.248;2022-08-11T06:28:43;97725.47;;;20.81;100.00
13867;BME280;7003;46.982;15.248;2022-08-11T06:31:13;97725.16;;;21.00;100.00
13867;BME280;7003;46.982;15.248;2022-08-11T06:33:53;97732.19;;;21.15;100.00
13867;BME280;7003;46.982;15.248;2022-08-11T06:36:29;97732.69;;;21.28;100.00
13867;BME280;7003;46.982;15.248;2022-08-11T06:39:07;97734.22;;;21.29;100.00
13867;BME280;7003;46.982;15.248;2022-08-11T06:41:46;97738.03;;;21.17;100.00
13867;BME280;7003;46.982;15.248;2022-08-11T06:44:26;97737.31;;;21.31;100.00
13867;BME280;7003;46.982;15.248;2022-08-11T06:47:06;97731.59;;;21.50;100.00
13867;BME280;7003;46.982;15.248;2022-08-11T06:49:42;97736.63;;;21.55;100.00
13867;BME280;7003;46.982;15.248;2022-08-11T06:52:30;97728.53;;;21.66;100.00
13867;BME280;7003;46.982;15.248;2022-08-11T06:55:03;97723.94;;;21.80;100.00
13867;BME280;7003;46.982;15.248;2022-08-11T06:57:34;97729.75;;;21.89;93.97
13867;BME280;7003;46.982;15.248;2022-08-11T07:00:21;97726.66;;;21.95;92.08
13867;BME280;7003;46.982;15.248;2022-08-11T07:02:58;97722.81;;;22.52;94.95
13867;BME280;7003;46.982;15.248;2022-08-11T07:05:38;97719.69;;;22.86;77.21
13867;BME280;7003;46.982;15.248;2022-08-11T07:14:49;97724.34;;;22.46;68.35
13867;BME280;7003;46.982;15.248;2022-08-11T07:17:40;97724.38;;;22.75;69.23
13867;BME280;7003;46.982;15.248;2022-08-11T07:20:12;97722.03;;;22.77;61.09
13867;BME280;7003;46.982;15.248;2022-08-11T07:23:02;97719.69;;;22.72;62.32
13867;BME280;7003;46.982;15.248;2022-08-11T07:26:02;97712.72;;;22.81;61.64
13867;BME280;7003;46.982;15.248;2022-08-11T07:28:50;97714.25;;;22.72;61.66
13867;BME280;7003;46.982;15.248;2022-08-11T07:31:33;97713.28;;;23.38;60.31
13867;BME280;7003;46.982;15.248;2022-08-11T07:34:11;97714.25;;;23.80;56.18
13867;BME280;7003;46.982;15.248;2022-08-11T07:36:46;97712.88;;;24.09;55.91
13867;BME280;7003;46.982;15.248;2022-08-11T07:39:20;97709.28;;;24.27;53.72
13867;BME280;7003;46.982;15.248;2022-08-11T07:41:52;97703.28;;;24.46;53.55
13867;BME280;7003;46.982;15.248;2022-08-11T07:44:21;97704.41;;;24.93;53.53
13867;BME280;7003;46.982;15.248;2022-08-11T07:46:54;97705.91;;;24.94;52.57
13867;BME280;7003;46.982;15.248;2022-08-11T07:49:43;97704.25;;;24.66;50.90
13867;BME280;7003;46.982;15.248;2022-08-11T07:52:33;97703.22;;;25.24;51.38
13867;BME280;7003;46.982;15.248;2022-08-11T07:55:11;97702.47;;;25.24;46.64
13867;BME280;7003;46.982;15.248;2022-08-11T07:57:44;97696.47;;;25.36;49.68
13867;BME280;7003;46.982;15.248;2022-08-11T08:00:35;97699.84;;;25.47;45.76
13867;BME280;7003;46.982;15.248;2022-08-11T08:03:24;97694.91;;;25.69;45.16
13867;BME280;7003;46.982;15.248;2022-08-11T08:06:13;97695.97;;;25.75;45.47
13867;BME280;7003;46.982;15.248;2022-08-11T08:09:00;97690.22;;;25.70;44.72
13867;BME280;7003;46.982;15.248;2022-08-11T08:11:46;97684.03;;;25.65;44.29
13867;BME280;7003;46.982;15.248;2022-08-11T08:14:34;97687.31;;;25.53;44.65
13867;BME280;7003;46.982;15.248;2022-08-11T08:17:23;97682.47;;;25.07;44.74
13867;BME280;7003;46.982;15.248;2022-08-11T08:20:12;97688.38;;;24.61;47.13
13867;BME280;7003;46.982;15.248;2022-08-11T08:22:43;97686.00;;;24.63;44.39
13867;BME280;7003;46.982;15.248;2022-08-11T08:25:13;97682.16;;;24.61;46.13
13867;BME280;7003;46.982;15.248;2022-08-11T08:27:49;97685.50;;;24.38;48.30
13867;BME280;7003;46.982;15.248;2022-08-11T08:30:19;97683.28;;;24.63;49.19
13867;BME280;7003;46.982;15.248;2022-08-11T08:33:07;97684.53;;;24.55;48.70
13867;BME280;7003;46.982;15.248;2022-08-11T08:35:36;97678.50;;;25.12;49.47
13867;BME280;7003;46.982;15.248;2022-08-11T08:38:04;97679.78;;;24.66;48.28
13867;BME280;7003;46.982;15.248;2022-08-11T08:40:32;97676.75;;;25.28;48.03
13867;BME280;7003;46.982;15.248;2022-08-11T08:43:07;97670.72;;;25.10;49.19
13867;BME280;7003;46.982;15.248;2022-08-11T08:45:37;97674.31;;;25.04;50.62
13867;BME280;7003;46.982;15.248;2022-08-11T08:48:10;97672.25;;;25.45;49.83
13867;BME280;7003;46.982;15.248;2022-08-11T08:50:42;97664.44;;;25.47;47.84
13867;BME280;7003;46.982;15.248;2022-08-11T08:53:34;97666.50;;;25.66;49.43
13867;BME280;7003;46.982;15.248;2022-08-11T08:56:06;97672.72;;;25.94;47.05
13867;BME280;7003;46.982;15.248;2022-08-11T08:58:41;97663.00;;;26.16;45.89
13867;BME280;7003;46.982;15.248;2022-08-11T09:01:15;97667.84;;;26.32;46.91
13867;BME280;7003;46.982;15.248;2022-08-11T09:03:50;97659.69;;;26.05;46.48
13867;BME280;7003;46.982;15.248;2022-08-11T09:06:19;97656.34;;;25.71;47.28
13867;BME280;7003;46.982;15.248;2022-08-11T09:08:50;97658.19;;;25.77;46.82
13867;BME280;7003;46.982;15.248;2022-08-11T09:11:22;97654.91;;;26.36;46.17
13867;BME280;7003;46.982;15.248;2022-08-11T09:14:09;97657.69;;;26.95;45.52
13867;BME280;7003;46.982;15.248;2022-08-11T09:16:37;97649.53;;;26.32;43.16
13867;BME280;7003;46.982;15.248;2022-08-11T09:19:06;97649.41;;;25.89;44.45
13867;BME280;7003;46.982;15.248;2022-08-11T09:21:39;97653.28;;;25.38;47.06
13867;BME280;7003;46.982;15.248;2022-08-11T09:24:08;97650.31;;;25.83;48.71
13867;BME280;7003;46.982;15.248;2022-08-11T09:26:53;97645.56;;;26.76;44.01
13867;BME280;7003;46.982;15.248;2022-08-11T09:29:30;97650.06;;;26.87;42.72
13867;BME280;7003;46.982;15.248;2022-08-11T09:31:58;97644.38;;;26.58;44.38
13867;BME280;7003;46.982;15.248;2022-08-11T09:34:29;97641.06;;;26.47;42.14
13867;BME280;7003;46.982;15.248;2022-08-11T09:37:02;97642.63;;;26.24;44.58
13867;BME280;7003;46.982;15.248;2022-08-11T09:39:48;97637.25;;;26.17;44.40
13867;BME280;7003;46.982;15.248;2022-08-11T09:42:34;97628.44;;;26.76;46.49
13867;BME280;7003;46.982;15.248;2022-08-11T09:45:22;97619.50;;;27.31;43.64
13867;BME280;7003;46.982;15.248;2022-08-11T09:47:50;97625.47;;;27.42;40.63
13867;BME280;7003;46.982;15.248;2022-08-11T09:50:22;97618.13;;;27.91;42.26
13867;BME280;7003;46.982;15.248;2022-08-11T09:52:52;97614.94;;;28.25;40.61
13867;BME280;7003;46.982;15.248;2022-08-11T09:55:21;97609.47;;;28.25;39.52
13867;BME280;7003;46.982;15.248;2022-08-11T09:57:51;97608.75;;;28.38;39.09
13867;BME280;7003;46.982;15.248;2022-08-11T10:00:40;97607.34;;;28.01;39.73
13867;BME280;7003;46.982;15.248;2022-08-11T10:03:11;97601.22;;;28.70;40.92
13867;BME280;7003;46.982;15.248;2022-08-11T10:05:44;97589.91;;;28.56;38.12
13867;BME280;7003;46.982;15.248;2022-08-11T10:08:31;97590.88;;;28.78;38.55
13867;BME280;7003;46.982;15.248;2022-08-11T10:11:02;97588.13;;;28.91;42.12
13867;BME280;7003;46.982;15.248;2022-08-11T10:13:33;97597.78;;;28.25;41.30
13867;BME280;7003;46.982;15.248;2022-08-11T10:16:27;97584.28;;;27.85;39.97
13867;BME280;7003;46.982;15.248;2022-08-11T10:18:58;97583.94;;;28.16;41.18
13867;BME280;7003;46.982;15.248;2022-08-11T10:21:31;97571.81;;;28.58;39.88
13867;BME280;7003;46.982;15.248;2022-08-11T10:24:04;97570.16;;;28.90;38.71
13867;BME280;7003;46.982;15.248;2022-08-11T10:26:52;97574.47;;;29.03;38.66
13867;BME280;7003;46.982;15.248;2022-08-11T10:29:26;97571.72;;;28.91;36.98
13867;BME280;7003;46.982;15.248;2022-08-11T10:32:19;97562.78;;;27.55;37.35
13867;BME280;7003;46.982;15.248;2022-08-11T10:35:07;97567.69;;;28.09;39.55
13867;BME280;7003;46.982;15.248;2022-08-11T10:37:40;97559.84;;;28.40;38.15
13867;BME280;7003;46.982;15.248;2022-08-11T10:40:09;97543.50;;;28.23;39.61
13867;BME280;7003;46.982;15.248;2022-08-11T10:42:43;97554.06;;;27.76;43.14
13867;BME280;7003;46.982;15.248;2022-08-11T10:45:33;97549.94;;;28.01;38.83
13867;BME280;7003;46.982;15.248;2022-08-11T10:48:34;97539.66;;;28.21;39.50
13867;BME280;7003;46.982;15.248;2022-08-11T10:51:06;97539.88;;;28.55;40.82
13867;BME280;7003;46.982;15.248;2022-08-11T10:53:45;97536.78;;;29.20;38.66
13867;BME280;7003;46.982;15.248;2022-08-11T10:56:36;97538.66;;;29.23;34.86
13867;BME280;7003;46.982;15.248;2022-08-11T10:59:27;97527.50;;;28.22;33.32
13867;BME280;7003;46.982;15.248;2022-08-11T11:01:59;97526.31;;;28.23;36.13
13867;BME280;7003;46.982;15.248;2022-08-11T11:04:38;97521.50;;;27.82;35.63
13867;BME280;7003;46.982;15.248;2022-08-11T11:07:18;97521.91;;;27.96;36.39
13867;BME280;7003;46.982;15.248;2022-08-11T11:09:50;97519.91;;;28.42;37.31
13867;BME280;7003;46.982;15.248;2022-08-11T11:12:24;97519.25;;;28.80;35.96
13867;BME280;7003;46.982;15.248;2022-08-11T11:15:12;97519.91;;;29.09;33.95
13867;BME280;7003;46.982;15.248;2022-08-11T11:18:03;97516.31;;;29.37;36.57
13867;BME280;7003;46.982;15.248;2022-08-11T11:20:39;97515.72;;;29.55;36.69
13867;BME280;7003;46.982;15.248;2022-08-11T11:23:13;97521.09;;;30.06;34.43
13867;BME280;7003;46.982;15.248;2022-08-11T11:25:54;97513.66;;;29.21;31.14
13867;BME280;7003;46.982;15.248;2022-08-11T11:31:55;97511.63;;;29.72;32.42
13867;BME280;7003;46.982;15.248;2022-08-11T11:34:41;97511.25;;;29.96;34.49
13867;BME280;7003;46.982;15.248;2022-08-11T11:37:15;97514.72;;;30.31;33.78
13867;BME280;7003;46.982;15.248;2022-08-11T11:39:44;97515.06;;;30.85;31.93
13867;BME280;7003;46.982;15.248;2022-08-11T11:42:12;97503.81;;;29.83;28.09
13867;BME280;7003;46.982;15.248;2022-08-11T11:44:47;97505.78;;;28.44;31.73
13867;BME280;7003;46.982;15.248;2022-08-11T11:47:19;97503.00;;;27.57;33.17
13867;BME280;7003;46.982;15.248;2022-08-11T11:49:51;97500.41;;;27.50;36.55
13867;BME280;7003;46.982;15.248;2022-08-11T11:52:21;97496.00;;;27.24;37.64
13867;BME280;7003;46.982;15.248;2022-08-11T11:54:54;97494.28;;;27.13;34.53
13867;BME280;7003;46.982;15.248;2022-08-11T11:57:26;97503.06;;;27.37;33.95
13867;BME280;7003;46.982;15.248;2022-08-11T12:00:12;97496.06;;;27.20;34.03
13867;BME280;7003;46.982;15.248;2022-08-11T12:03:01;97498.03;;;27.19;34.85
13867;BME280;7003;46.982;15.248;2022-08-11T12:05:32;97491.47;;;27.66;36.39
13867;BME280;7003;46.982;15.248;2022-08-11T12:08:05;97484.47;;;28.51;33.77
13867;BME280;7003;46.982;15.248;2022-08-11T12:10:46;97478.06;;;28.83;35.44
13867;BME280;7003;46.982;15.248;2022-08-11T12:13:16;97475.56;;;28.34;34.89
13867;BME280;7003;46.982;15.248;2022-08-11T12:16:02;97477.44;;;28.50;36.28
13867;BME280;7003;46.982;15.248;2022-08-11T12:18:31;97471.59;;;29.15;34.31
13867;BME280;7003;46.982;15.248;2022-08-11T12:21:03;97473.63;;;29.62;34.17
13867;BME280;7003;46.982;15.248;2022-08-11T12:23:37;97464.81;;;30.01;33.95
13867;BME280;7003;46.982;15.248;2022-08-11T12:26:23;97464.03;;;30.66;35.29
13867;BME280;7003;46.982;15.248;2022-08-11T12:29:10;97459.47;;;30.19;33.95
13867;BME280;7003;46.982;15.248;2022-08-11T12:31:39;97454.09;;;30.38;32.51
13867;BME280;7003;46.982;15.248;2022-08-11T12:34:10;97450.69;;;30.86;33.99
13867;BME280;7003;46.982;15.248;2022-08-11T12:36:40;97443.53;;;30.89;33.19
13867;BME280;7003;46.982;15.248;2022-08-11T12:39:11;97441.16;;;30.69;31.60
13867;BME280;7003;46.982;15.248;2022-08-11T12:41:42;97434.16;;;30.77;30.83
13867;BME280;7003;46.982;15.248;2022-08-11T12:44:32;97436.50;;;31.28;30.30
13867;BME280;7003;46.982;15.248;2022-08-11T12:47:19;97433.75;;;31.46;29.32
13867;BME280;7003;46.982;15.248;2022-08-11T12:49:48;97432.03;;;31.21;29.05
13867;BME280;7003;46.982;15.248;2022-08-11T12:52:41;97423.66;;;31.25;29.33
13867;BME280;7003;46.982;15.248;2022-08-11T12:55:16;97418.34;;;31.67;30.58
13867;BME280;7003;46.982;15.248;2022-08-11T12:58:13;97411.13;;;30.75;28.85
13867;BME280;7003;46.982;15.248;2022-08-11T13:00:42;97415.38;;;31.07;30.18
13867;BME280;7003;46.982;15.248;2022-08-11T13:03:31;97408.09;;;31.31;27.50
13867;BME280;7003;46.982;15.248;2022-08-11T13:06:22;97406.75;;;31.81;28.91
13867;BME280;7003;46.982;15.248;2022-08-11T13:08:51;97403.25;;;31.62;27.52
13867;BME280;7003;46.982;15.248;2022-08-11T13:11:22;97402.44;;;30.45;29.63
13867;BME280;7003;46.982;15.248;2022-08-11T13:14:07;97402.84;;;30.35;32.32
13867;BME280;7003;46.982;15.248;2022-08-11T13:16:38;97394.88;;;30.28;30.56
13867;BME280;7003;46.982;15.248;2022-08-11T13:19:20;97401.91;;;29.85;32.24
13867;BME280;7003;46.982;15.248;2022-08-11T13:21:48;97400.63;;;30.20;33.34
13867;BME280;7003;46.982;15.248;2022-08-11T13:24:20;97389.75;;;30.70;30.01
13867;BME280;7003;46.982;15.248;2022-08-11T13:26:51;97386.22;;;31.09;31.08
13867;BME280;7003;46.982;15.248;2022-08-11T13:29:23;97383.28;;;31.04;30.44
13867;BME280;7003;46.982;15.248;2022-08-11T13:31:53;97382.31;;;30.79;31.96
13867;BME280;7003;46.982;15.248;2022-08-11T13:34:25;97384.72;;;30.68;32.25
13867;BME280;7003;46.982;15.248;2022-08-11T13:36:57;97370.78;;;31.03;32.72
13867;BME280;7003;46.982;15.248;2022-08-11T13:39:30;97372.06;;;31.47;31.85
13867;BME280;7003;46.982;15.248;2022-08-11T13:42:03;97372.13;;;30.89;29.85
13867;BME280;7003;46.982;15.248;2022-08-11T13:44:34;97370.91;;;30.99;32.22
13867;BME280;7003;46.982;15.248;2022-08-11T13:47:06;97376.63;;;31.32;27.96
13867;BME280;7003;46.982;15.248;2022-08-11T13:49:39;97369.75;;;31.46;28.36
13867;BME280;7003;46.982;15.248;2022-08-11T13:52:11;97367.34;;;31.66;26.82
13867;BME280;7003;46.982;15.248;2022-08-11T13:54:43;97370.84;;;31.39;30.02
13867;BME280;7003;46.982;15.248;2022-08-11T13:57:15;97360.72;;;31.91;27.59
13867;BME280;7003;46.982;15.248;2022-08-11T13:59:45;97354.66;;;31.32;26.74
13867;BME280;7003;46.982;15.248;2022-08-11T14:02:15;97355.03;;;32.22;29.93
13867;BME280;7003;46.982;15.248;2022-08-11T14:04:46;97349.44;;;31.98;27.09
13867;BME280;7003;46.982;15.248;2022-08-11T14:07:19;97343.81;;;31.65;29.99
13867;BME280;7003;46.982;15.248;2022-08-11T14:09:53;97347.78;;;31.55;32.30
13867;BME280;7003;46.982;15.248;2022-08-11T14:12:25;97348.84;;;31.30;27.35
13867;BME280;7003;46.982;15.248;2022-08-11T14:15:17;97343.00;;;31.83;28.12
13867;BME280;7003;46.982;15.248;2022-08-11T14:17:52;97345.00;;;31.09;30.48
13867;BME280;7003;46.982;15.248;2022-08-11T14:20:21;97338.16;;;31.50;29.42
13867;BME280;7003;46.982;15.248;2022-08-11T14:22:51;97329.56;;;31.85;27.04
13867;BME280;7003;46.982;15.248;2022-08-11T14:25:21;97337.47;;;32.01;28.77
13867;BME280;7003;46.982;15.248;2022-08-11T14:27:50;97337.94;;;30.41;26.89
13867;BME280;7003;46.982;15.248;2022-08-11T14:30:21;97334.50;;;30.28;30.01
13867;BME280;7003;46.982;15.248;2022-08-11T14:33:06;97329.75;;;31.08;29.80
13867;BME280;7003;46.982;15.248;2022-08-11T14:35:37;97324.09;;;31.39;30.14
13867;BME280;7003;46.982;15.248;2022-08-11T14:38:07;97321.66;;;31.14;30.02
13867;BME280;7003;46.982;15.248;2022-08-11T14:40:35;97328.13;;;30.31;28.50
13867;BME280;7003;46.982;15.248;2022-08-11T14:43:24;97329.09;;;29.84;31.31
13867;BME280;7003;46.982;15.248;2022-08-11T14:46:12;97328.19;;;30.49;34.21
13867;BME280;7003;46.982;15.248;2022-08-11T14:48:58;97319.47;;;30.90;33.10
13867;BME280;7003;46.982;15.248;2022-08-11T14:51:29;97318.28;;;30.42;31.82
13867;BME280;7003;46.982;15.248;2022-08-11T14:53:58;97318.56;;;30.93;33.50
13867;BME280;7003;46.982;15.248;2022-08-11T14:56:39;97312.06;;;31.18;30.86
13867;BME280;7003;46.982;15.248;2022-08-11T14:59:12;97310.63;;;30.86;29.27
13867;BME280;7003;46.982;15.248;2022-08-11T15:01:43;97312.31;;;30.35;30.53
13867;BME280;7003;46.982;15.248;2022-08-11T15:04:28;97312.63;;;30.06;31.05
13867;BME280;7003;46.982;15.248;2022-08-11T15:06:59;97317.09;;;29.25;32.24
13867;BME280;7003;46.982;15.248;2022-08-11T15:09:28;97315.50;;;28.30;33.76
13867;BME280;7003;46.982;15.248;2022-08-11T15:11:56;97312.41;;;28.03;35.85
13867;BME280;7003;46.982;15.248;2022-08-11T15:14:45;97308.34;;;28.07;35.93
13867;BME280;7003;46.982;15.248;2022-08-11T15:17:34;97310.03;;;28.30;35.63